createdAt,value
2019-01-06T00:00:35.611Z,78.96
2019-01-06T00:01:37.993Z,79.27
2019-01-06T00:02:35.207Z,79.58
2019-01-06T00:03:35.025Z,79.68
2019-01-06T00:04:35.211Z,79.88
2019-01-06T00:05:35.692Z,80.51
2019-01-06T00:06:35.490Z,80.71
2019-01-06T00:07:35.056Z,81.06
2019-01-06T00:08:35.011Z,81.06
2019-01-06T00:09:35.475Z,80.75
2019-01-06T00:10:35.306Z,81.48
2019-01-06T00:11:34.832Z,81.58
2019-01-06T00:12:36.032Z,81.99
2019-01-06T00:13:36.082Z,82.10
2019-01-06T00:14:34.794Z,82.06
2019-01-06T00:15:34.788Z,81.89
2019-01-06T00:16:35.224Z,81.75
2019-01-06T00:17:35.026Z,81.68
2019-01-06T00:18:34.755Z,81.65
2019-01-06T00:19:34.744Z,81.58
2019-01-06T00:20:34.730Z,81.96
2019-01-06T00:21:35.023Z,81.79
2019-01-06T00:22:34.834Z,81.68
2019-01-06T00:23:36.504Z,81.68
2019-01-06T00:24:34.671Z,81.68
2019-01-06T00:25:34.670Z,81.27
2019-01-06T00:26:35.061Z,81.27
2019-01-06T00:27:34.654Z,81.65
2019-01-06T00:28:34.823Z,81.68
2019-01-06T00:29:34.632Z,81.65
2019-01-06T00:30:34.609Z,82.31
2019-01-06T00:31:34.611Z,82.51
2019-01-06T00:32:34.778Z,82.51
2019-01-06T00:33:34.581Z,83.07
2019-01-06T00:34:34.729Z,83.17
2019-01-06T00:35:34.648Z,83.59
2019-01-06T00:36:34.573Z,83.80
2019-01-06T00:37:34.540Z,83.84
2019-01-06T00:38:35.122Z,84.15
2019-01-06T00:39:34.518Z,84.77
2019-01-06T00:40:34.502Z,84.56
2019-01-06T00:41:34.487Z,84.88
2019-01-06T00:42:34.479Z,84.56
2019-01-06T00:43:34.479Z,84.88
2019-01-06T00:44:36.758Z,85.39
2019-01-06T00:45:34.442Z,85.43
2019-01-06T00:46:34.459Z,86.47
2019-01-06T00:47:34.755Z,86.47
2019-01-06T00:48:34.413Z,86.36
2019-01-06T00:49:34.611Z,86.26
2019-01-06T00:50:34.506Z,86.05
2019-01-06T00:51:35.138Z,86.30
2019-01-06T00:52:34.385Z,85.64
2019-01-06T00:53:34.408Z,85.57
2019-01-06T00:54:34.463Z,85.47
2019-01-06T00:55:40.078Z,86.47
2019-01-06T00:56:34.323Z,86.57
2019-01-06T00:57:34.314Z,86.36
2019-01-06T00:58:34.301Z,86.57
2019-01-06T00:59:34.601Z,86.57
2019-01-06T01:00:34.285Z,86.78
2019-01-06T01:01:35.123Z,86.26
2019-01-06T01:02:34.262Z,86.72
2019-01-06T01:03:35.118Z,86.30
2019-01-06T01:04:34.237Z,85.88
2019-01-06T01:05:34.678Z,85.36
2019-01-06T01:06:34.557Z,85.57
2019-01-06T01:07:34.221Z,85.33
2019-01-06T01:08:34.199Z,85.33
2019-01-06T01:09:35.928Z,85.33
2019-01-06T01:10:34.227Z,85.26
2019-01-06T01:11:34.166Z,85.12
2019-01-06T01:12:34.647Z,85.22
2019-01-06T01:13:34.132Z,85.36
2019-01-06T01:14:34.315Z,85.78
2019-01-06T01:15:34.111Z,85.05
2019-01-06T01:16:34.119Z,84.12
2019-01-06T01:17:34.164Z,84.01
2019-01-06T01:18:34.271Z,84.12
2019-01-06T01:19:34.075Z,83.81
2019-01-06T01:20:34.065Z,84.01
2019-01-06T01:21:34.049Z,84.12
2019-01-06T01:22:34.052Z,84.01
2019-01-06T01:23:34.165Z,84.58
2019-01-06T01:24:34.233Z,84.27
2019-01-06T01:25:34.015Z,84.43
2019-01-06T01:26:34.004Z,84.12
2019-01-06T01:27:33.986Z,84.78
2019-01-06T01:28:33.985Z,84.47
2019-01-06T01:29:33.963Z,85.10
2019-01-06T01:30:34.130Z,85.30
2019-01-06T01:31:34.109Z,85.30
2019-01-06T01:32:33.926Z,85.10
2019-01-06T01:33:33.915Z,84.68
2019-01-06T01:34:34.007Z,84.37
2019-01-06T01:35:34.089Z,84.89
2019-01-06T01:36:33.886Z,85.10
2019-01-06T01:37:33.881Z,85.10
2019-01-06T01:38:34.202Z,85.30
2019-01-06T01:39:33.856Z,84.33
2019-01-06T01:40:33.968Z,85.36
2019-01-06T01:41:34.204Z,85.51
2019-01-06T01:42:34.366Z,85.61
2019-01-06T01:43:33.807Z,84.89
2019-01-06T01:44:33.811Z,84.58
2019-01-06T01:45:33.814Z,85.10
2019-01-06T01:46:34.316Z,84.41
2019-01-06T01:47:33.770Z,85.65
2019-01-06T01:48:34.211Z,85.13
2019-01-06T01:49:33.743Z,84.92
2019-01-06T01:50:33.741Z,85.86
2019-01-06T01:51:33.736Z,85.55
2019-01-06T01:52:33.721Z,85.55
2019-01-06T01:53:34.009Z,85.34
2019-01-06T01:54:33.694Z,86.27
2019-01-06T01:55:35.697Z,87.15
2019-01-06T01:56:33.688Z,86.94
2019-01-06T01:57:33.789Z,87.15
2019-01-06T01:58:33.678Z,86.94
2019-01-06T01:59:34.263Z,86.94
2019-01-06T02:00:33.734Z,86.83
2019-01-06T02:01:33.638Z,86.94
2019-01-06T02:02:33.624Z,86.83
2019-01-06T02:03:33.669Z,86.94
2019-01-06T02:04:33.752Z,86.90
2019-01-06T02:05:33.569Z,86.94
2019-01-06T02:06:33.556Z,86.83
2019-01-06T02:07:33.560Z,86.83
2019-01-06T02:08:33.650Z,86.83
2019-01-06T02:09:33.526Z,86.83
2019-01-06T02:10:33.703Z,86.94
2019-01-06T02:11:33.503Z,86.80
2019-01-06T02:12:33.748Z,86.90
2019-01-06T02:13:33.499Z,86.73
2019-01-06T02:14:33.523Z,86.80
2019-01-06T02:15:33.595Z,87.04
2019-01-06T02:16:34.815Z,86.94
2019-01-06T02:17:33.441Z,87.04
2019-01-06T02:18:33.452Z,86.83
2019-01-06T02:19:33.418Z,86.80
2019-01-06T02:20:33.406Z,87.01
2019-01-06T02:21:33.404Z,87.01
2019-01-06T02:22:33.529Z,87.11
2019-01-06T02:23:33.417Z,87.11
2019-01-06T02:24:33.374Z,87.11
2019-01-06T02:25:33.357Z,87.11
2019-01-06T02:26:33.358Z,87.21
2019-01-06T02:27:33.363Z,87.11
2019-01-06T02:28:33.639Z,87.01
2019-01-06T02:29:33.378Z,87.32
2019-01-06T02:30:33.318Z,87.11
2019-01-06T02:31:33.417Z,87.11
2019-01-06T02:32:33.971Z,87.11
2019-01-06T02:33:33.268Z,87.11
2019-01-06T02:34:33.702Z,86.59
2019-01-06T02:35:33.481Z,86.38
2019-01-06T02:36:34.490Z,86.38
2019-01-06T02:37:34.330Z,86.80
2019-01-06T02:38:33.219Z,86.49
2019-01-06T02:39:33.210Z,86.80
2019-01-06T02:40:38.046Z,86.69
2019-01-06T02:41:33.184Z,86.49
2019-01-06T02:42:33.237Z,87.01
2019-01-06T02:43:33.188Z,87.15
2019-01-06T02:44:33.904Z,87.25
2019-01-06T02:45:33.141Z,87.04
2019-01-06T02:46:33.816Z,86.73
2019-01-06T02:47:33.128Z,87.04
2019-01-06T02:48:33.110Z,87.25
2019-01-06T02:49:33.106Z,87.46
2019-01-06T02:50:33.283Z,87.77
2019-01-06T02:51:33.074Z,88.09
2019-01-06T02:52:33.456Z,88.40
2019-01-06T02:53:33.056Z,88.19
2019-01-06T02:54:33.099Z,88.29
2019-01-06T02:55:33.028Z,88.81
2019-01-06T02:56:33.022Z,89.02
2019-01-06T02:57:33.014Z,88.92
2019-01-06T02:58:33.259Z,89.02
2019-01-06T02:59:33.013Z,88.92
2019-01-06T03:00:34.788Z,88.81
2019-01-06T03:01:33.183Z,88.50
2019-01-06T03:02:33.037Z,88.81
2019-01-06T03:03:33.591Z,88.81
2019-01-06T03:04:33.061Z,88.81
2019-01-06T03:05:33.291Z,89.02
2019-01-06T03:06:32.994Z,88.81
2019-01-06T03:07:33.191Z,88.50
2019-01-06T03:08:33.022Z,87.98
2019-01-06T03:09:33.678Z,88.40
2019-01-06T03:10:33.046Z,88.19
2019-01-06T03:11:32.893Z,87.98
2019-01-06T03:12:32.861Z,87.88
2019-01-06T03:13:32.849Z,88.19
2019-01-06T03:14:32.864Z,87.56
2019-01-06T03:15:33.481Z,87.46
2019-01-06T03:16:32.815Z,87.32
2019-01-06T03:17:32.837Z,87.77
2019-01-06T03:18:32.820Z,87.84
2019-01-06T03:19:32.777Z,87.63
2019-01-06T03:20:33.162Z,87.66
2019-01-06T03:21:33.280Z,87.56
2019-01-06T03:22:32.792Z,87.56
2019-01-06T03:23:32.739Z,87.42
2019-01-06T03:24:32.727Z,87.42
2019-01-06T03:25:32.723Z,86.83
2019-01-06T03:26:32.701Z,87.15
2019-01-06T03:27:36.183Z,87.35
2019-01-06T03:28:32.733Z,87.25
2019-01-06T03:29:32.678Z,86.83
2019-01-06T03:30:32.703Z,86.69
2019-01-06T03:31:32.655Z,86.83
2019-01-06T03:32:32.820Z,86.90
2019-01-06T03:33:32.620Z,86.94
2019-01-06T03:34:32.623Z,87.15
2019-01-06T03:35:32.684Z,87.11
2019-01-06T03:36:32.600Z,87.21
2019-01-06T03:37:32.728Z,87.25
2019-01-06T03:38:36.663Z,86.69
2019-01-06T03:39:32.613Z,86.80
2019-01-06T03:40:32.556Z,85.75
2019-01-06T03:41:32.535Z,85.90
2019-01-06T03:42:32.530Z,86.52
2019-01-06T03:43:32.528Z,86.63
2019-01-06T03:44:32.710Z,86.11
2019-01-06T03:45:32.492Z,86.42
2019-01-06T03:46:32.499Z,86.21
2019-01-06T03:47:32.480Z,85.69
2019-01-06T03:48:34.338Z,86.11
2019-01-06T03:49:32.458Z,86.00
2019-01-06T03:50:32.820Z,85.69
2019-01-06T03:51:32.429Z,86.11
2019-01-06T03:52:32.546Z,85.86
2019-01-06T03:53:32.425Z,85.38
2019-01-06T03:54:32.397Z,85.44
2019-01-06T03:55:32.708Z,84.82
2019-01-06T03:56:32.399Z,84.92
2019-01-06T03:57:32.368Z,85.13
2019-01-06T03:58:32.369Z,84.82
2019-01-06T03:59:32.342Z,84.72
2019-01-06T04:00:32.352Z,85.03
2019-01-06T04:01:32.699Z,85.13
2019-01-06T04:02:32.319Z,84.72
2019-01-06T04:03:32.315Z,84.82
2019-01-06T04:04:32.310Z,84.72
2019-01-06T04:05:32.298Z,85.24
2019-01-06T04:06:34.251Z,85.13
2019-01-06T04:07:33.127Z,84.61
2019-01-06T04:08:32.300Z,84.82
2019-01-06T04:09:32.736Z,84.82
2019-01-06T04:10:32.231Z,84.20
2019-01-06T04:11:32.239Z,84.30
2019-01-06T04:12:32.326Z,84.61
2019-01-06T04:13:32.196Z,83.99
2019-01-06T04:14:33.537Z,84.20
2019-01-06T04:15:32.178Z,83.78
2019-01-06T04:16:32.181Z,83.89
2019-01-06T04:17:32.333Z,83.89
2019-01-06T04:18:32.275Z,83.78
2019-01-06T04:19:33.180Z,83.68
2019-01-06T04:20:32.134Z,83.37
2019-01-06T04:21:32.110Z,83.26
2019-01-06T04:22:34.445Z,83.26
2019-01-06T04:23:32.271Z,83.33
2019-01-06T04:24:32.658Z,84.16
2019-01-06T04:25:32.062Z,84.20
2019-01-06T04:26:32.180Z,84.09
2019-01-06T04:27:32.048Z,84.20
2019-01-06T04:28:32.223Z,84.20
2019-01-06T04:29:32.035Z,83.99
2019-01-06T04:30:35.278Z,83.53
2019-01-06T04:31:32.002Z,83.68
2019-01-06T04:32:31.999Z,83.47
2019-01-06T04:33:32.009Z,83.53
2019-01-06T04:34:31.990Z,83.12
2019-01-06T04:35:32.194Z,83.26
2019-01-06T04:36:31.948Z,83.01
2019-01-06T04:37:31.938Z,82.70
2019-01-06T04:38:31.931Z,82.53
2019-01-06T04:39:32.025Z,82.70
2019-01-06T04:40:31.913Z,82.91
2019-01-06T04:41:32.350Z,83.33
2019-01-06T04:42:31.889Z,83.58
2019-01-06T04:43:32.015Z,83.68
2019-01-06T04:44:31.866Z,83.78
2019-01-06T04:45:31.906Z,83.99
2019-01-06T04:46:31.854Z,83.68
2019-01-06T04:47:32.231Z,83.47
2019-01-06T04:48:31.819Z,83.68
2019-01-06T04:49:31.825Z,83.89
2019-01-06T04:50:31.807Z,83.99
2019-01-06T04:51:32.384Z,83.89
2019-01-06T04:52:31.802Z,84.09
2019-01-06T04:53:32.102Z,84.30
2019-01-06T04:54:31.763Z,83.78
2019-01-06T04:55:31.761Z,83.78
2019-01-06T04:56:31.745Z,83.47
2019-01-06T04:57:31.731Z,83.37
2019-01-06T04:58:31.892Z,83.78
2019-01-06T04:59:31.715Z,83.26
2019-01-06T05:00:31.859Z,83.16
2019-01-06T05:01:31.836Z,83.05
2019-01-06T05:02:31.947Z,82.64
2019-01-06T05:03:32.208Z,82.74
2019-01-06T05:04:32.753Z,83.26
2019-01-06T05:05:31.668Z,83.47
2019-01-06T05:06:31.635Z,83.37
2019-01-06T05:07:31.616Z,83.05
2019-01-06T05:08:31.617Z,82.74
2019-01-06T05:09:31.983Z,82.84
2019-01-06T05:10:31.826Z,82.74
2019-01-06T05:11:31.572Z,83.16
2019-01-06T05:12:31.567Z,83.16
2019-01-06T05:13:31.562Z,83.47
2019-01-06T05:14:31.549Z,83.26
2019-01-06T05:15:31.864Z,83.16
2019-01-06T05:16:31.735Z,82.84
2019-01-06T05:17:31.515Z,82.74
2019-01-06T05:18:31.500Z,82.84
2019-01-06T05:19:31.552Z,82.64
2019-01-06T05:20:33.322Z,82.64
2019-01-06T05:21:31.648Z,82.64
2019-01-06T05:22:31.473Z,82.74
2019-01-06T05:23:31.450Z,82.53
2019-01-06T05:24:31.434Z,82.53
2019-01-06T05:25:31.426Z,82.29
2019-01-06T05:26:31.493Z,82.53
2019-01-06T05:27:32.423Z,82.50
2019-01-06T05:28:31.405Z,82.53
2019-01-06T05:29:31.377Z,82.64
2019-01-06T05:30:31.482Z,82.74
2019-01-06T05:31:31.364Z,82.32
2019-01-06T05:32:31.492Z,82.32
2019-01-06T05:33:31.613Z,82.32
2019-01-06T05:34:31.344Z,82.01
2019-01-06T05:35:31.316Z,81.91
2019-01-06T05:36:31.305Z,82.12
2019-01-06T05:37:31.307Z,81.91
2019-01-06T05:38:31.739Z,82.01
2019-01-06T05:39:31.291Z,82.12
2019-01-06T05:40:31.272Z,82.01
2019-01-06T05:41:32.035Z,82.32
2019-01-06T05:42:31.251Z,82.32
2019-01-06T05:43:31.231Z,82.64
2019-01-06T05:44:31.363Z,82.43
2019-01-06T05:45:31.298Z,82.46
2019-01-06T05:46:31.218Z,82.57
2019-01-06T05:47:31.354Z,82.32
2019-01-06T05:48:31.177Z,82.64
2019-01-06T05:49:31.298Z,82.64
2019-01-06T05:50:31.320Z,82.84
2019-01-06T05:51:31.506Z,82.78
2019-01-06T05:52:31.135Z,83.09
2019-01-06T05:53:31.125Z,83.20
2019-01-06T05:54:31.127Z,83.16
2019-01-06T05:55:31.105Z,82.74
2019-01-06T05:56:31.248Z,82.84
2019-01-06T05:57:31.084Z,82.53
2019-01-06T05:58:31.068Z,82.53
2019-01-06T05:59:31.069Z,82.12
2019-01-06T06:00:31.497Z,82.22
2019-01-06T06:01:31.082Z,82.46
2019-01-06T06:02:31.453Z,82.84
2019-01-06T06:03:31.836Z,82.46
2019-01-06T06:04:31.091Z,82.64
2019-01-06T06:05:31.011Z,82.36
2019-01-06T06:06:31.405Z,81.60
2019-01-06T06:07:31.272Z,81.74
2019-01-06T06:08:31.284Z,81.70
2019-01-06T06:09:31.097Z,81.91
2019-01-06T06:10:31.302Z,81.70
2019-01-06T06:11:31.237Z,81.60
2019-01-06T06:12:31.710Z,82.01
2019-01-06T06:13:31.545Z,82.15
2019-01-06T06:14:31.108Z,81.60
2019-01-06T06:15:31.140Z,81.49
2019-01-06T06:16:30.882Z,81.29
2019-01-06T06:17:30.871Z,81.60
2019-01-06T06:18:30.853Z,81.29
2019-01-06T06:19:31.570Z,81.43
2019-01-06T06:20:30.835Z,81.39
2019-01-06T06:21:30.890Z,81.39
2019-01-06T06:22:30.828Z,81.70
2019-01-06T06:23:30.960Z,80.66
2019-01-06T06:24:30.933Z,80.98
2019-01-06T06:25:31.728Z,81.49
2019-01-06T06:26:30.773Z,80.91
2019-01-06T06:27:30.762Z,80.98
2019-01-06T06:28:30.757Z,81.32
2019-01-06T06:29:30.741Z,81.18
2019-01-06T06:30:32.600Z,81.60
2019-01-06T06:31:30.921Z,81.43
2019-01-06T06:32:30.719Z,82.05
2019-01-06T06:33:30.696Z,81.95
2019-01-06T06:34:30.692Z,82.36
2019-01-06T06:35:30.675Z,82.26
2019-01-06T06:36:30.818Z,82.36
2019-01-06T06:37:30.668Z,82.57
2019-01-06T06:38:30.739Z,82.36
2019-01-06T06:39:30.638Z,82.26
2019-01-06T06:40:30.807Z,82.36
2019-01-06T06:41:30.612Z,82.26
2019-01-06T06:42:31.418Z,82.68
2019-01-06T06:43:30.784Z,82.36
2019-01-06T06:44:30.578Z,82.68
2019-01-06T06:45:30.569Z,82.36
2019-01-06T06:46:30.558Z,82.53
2019-01-06T06:47:30.546Z,82.57
2019-01-06T06:48:30.736Z,82.36
2019-01-06T06:49:30.529Z,82.53
2019-01-06T06:50:30.521Z,82.43
2019-01-06T06:51:30.500Z,82.12
2019-01-06T06:52:32.488Z,82.01
2019-01-06T06:53:30.484Z,81.91
2019-01-06T06:54:30.652Z,81.70
2019-01-06T06:55:30.525Z,81.39
2019-01-06T06:56:30.460Z,81.29
2019-01-06T06:57:30.441Z,80.98
2019-01-06T06:58:30.436Z,81.49
2019-01-06T06:59:30.413Z,81.49
2019-01-06T07:00:30.533Z,81.70
2019-01-06T07:01:30.395Z,81.39
2019-01-06T07:02:30.388Z,81.60
2019-01-06T07:03:30.376Z,81.49
2019-01-06T07:04:30.365Z,81.29
2019-01-06T07:05:30.746Z,81.29
2019-01-06T07:06:30.610Z,81.39
2019-01-06T07:07:30.347Z,81.08
2019-01-06T07:08:30.345Z,80.77
2019-01-06T07:09:30.308Z,80.87
2019-01-06T07:10:30.325Z,81.04
2019-01-06T07:11:30.537Z,80.32
2019-01-06T07:12:30.387Z,79.94
2019-01-06T07:13:32.157Z,80.66
2019-01-06T07:14:30.277Z,80.35
2019-01-06T07:15:30.247Z,80.77
2019-01-06T07:16:30.234Z,80.77
2019-01-06T07:17:30.363Z,80.77
2019-01-06T07:18:30.215Z,81.08
2019-01-06T07:19:30.216Z,80.35
2019-01-06T07:20:30.199Z,80.87
2019-01-06T07:21:30.190Z,80.15
2019-01-06T07:22:30.177Z,80.46
2019-01-06T07:23:30.350Z,80.77
2019-01-06T07:24:30.167Z,81.08
2019-01-06T07:25:30.153Z,80.87
2019-01-06T07:26:30.128Z,80.87
2019-01-06T07:27:30.146Z,80.91
2019-01-06T07:28:30.130Z,81.63
2019-01-06T07:29:31.990Z,81.39
2019-01-06T07:30:30.111Z,81.49
2019-01-06T07:31:30.228Z,81.60
2019-01-06T07:32:30.061Z,81.49
2019-01-06T07:33:30.069Z,80.66
2019-01-06T07:34:31.364Z,80.77
2019-01-06T07:35:30.084Z,80.87
2019-01-06T07:36:30.038Z,80.42
2019-01-06T07:37:30.014Z,80.32
2019-01-06T07:38:30.864Z,80.73
2019-01-06T07:39:29.988Z,80.56
2019-01-06T07:40:29.979Z,80.87
2019-01-06T07:41:30.172Z,80.98
2019-01-06T07:42:29.966Z,80.11
2019-01-06T07:43:29.957Z,80.52
2019-01-06T07:44:29.989Z,81.08
2019-01-06T07:45:29.928Z,80.21
2019-01-06T07:46:30.058Z,80.42
2019-01-06T07:47:31.271Z,79.90
2019-01-06T07:48:29.932Z,79.69
2019-01-06T07:49:29.886Z,79.17
2019-01-06T07:50:29.869Z,79.69
2019-01-06T07:51:29.862Z,79.55
2019-01-06T07:52:29.857Z,79.55
2019-01-06T07:53:30.206Z,79.65
2019-01-06T07:54:29.839Z,80.07
2019-01-06T07:55:31.529Z,78.30
2019-01-06T07:56:29.898Z,78.09
2019-01-06T07:57:29.808Z,78.65
2019-01-06T07:58:29.916Z,78.51
2019-01-06T07:59:30.697Z,78.82
2019-01-06T08:00:29.780Z,78.86
2019-01-06T08:01:31.001Z,79.24
2019-01-06T08:02:31.188Z,78.82
2019-01-06T08:03:36.829Z,78.30
2019-01-06T08:04:29.874Z,77.89
2019-01-06T08:05:29.756Z,77.99
2019-01-06T08:06:29.713Z,77.47
2019-01-06T08:07:30.617Z,77.89
2019-01-06T08:08:29.681Z,77.37
2019-01-06T08:09:29.859Z,77.23
2019-01-06T08:10:29.658Z,77.44
2019-01-06T08:11:29.749Z,76.29
2019-01-06T08:12:29.642Z,77.23
2019-01-06T08:13:29.624Z,76.92
2019-01-06T08:14:29.617Z,76.57
2019-01-06T08:15:39.347Z,76.16
2019-01-06T08:16:29.613Z,76.26
2019-01-06T08:17:29.589Z,76.26
2019-01-06T08:18:29.637Z,75.60
2019-01-06T08:19:29.560Z,75.81
2019-01-06T08:20:29.853Z,76.12
2019-01-06T08:21:29.548Z,75.29
2019-01-06T08:22:29.573Z,75.57
2019-01-06T08:23:29.560Z,74.84
2019-01-06T08:24:31.825Z,73.70
2019-01-06T08:25:40.539Z,73.91
2019-01-06T08:26:42.695Z,73.18
2019-01-06T08:27:29.496Z,72.84
2019-01-06T08:28:29.468Z,72.84
2019-01-06T08:29:29.641Z,72.77
2019-01-06T08:30:29.727Z,72.67
2019-01-06T08:31:30.586Z,72.63
2019-01-06T08:32:29.804Z,72.32
2019-01-06T08:33:30.868Z,72.11
2019-01-06T08:34:29.406Z,71.70
2019-01-06T08:35:29.443Z,72.11
2019-01-06T08:36:31.254Z,72.32
2019-01-06T08:37:29.817Z,72.32
2019-01-06T08:38:29.358Z,71.77
2019-01-06T08:39:29.559Z,71.56
2019-01-06T08:40:29.367Z,71.67
2019-01-06T08:41:29.328Z,71.46
2019-01-06T08:42:29.663Z,71.15
2019-01-06T08:43:29.815Z,71.25
2019-01-06T08:44:31.725Z,71.46
2019-01-06T08:45:31.891Z,71.04
2019-01-06T08:46:29.591Z,71.46
2019-01-06T08:47:29.256Z,71.25
2019-01-06T08:48:29.311Z,71.36
2019-01-06T08:49:29.792Z,71.36
2019-01-06T08:50:29.291Z,71.18
2019-01-06T08:51:29.221Z,71.15
2019-01-06T08:52:29.315Z,71.36
2019-01-06T08:53:29.185Z,71.49
2019-01-06T08:54:29.640Z,71.18
2019-01-06T08:55:31.937Z,71.28
2019-01-06T08:56:29.158Z,71.28
2019-01-06T08:57:29.151Z,71.39
2019-01-06T08:58:31.612Z,71.70
2019-01-06T08:59:29.150Z,71.49
2019-01-06T09:00:29.331Z,70.67
2019-01-06T09:01:29.124Z,69.80
2019-01-06T09:02:29.489Z,71.25
2019-01-06T09:03:29.082Z,70.32
2019-01-06T09:04:29.107Z,70.42
2019-01-06T09:05:29.489Z,71.36
2019-01-06T09:06:32.098Z,70.84
2019-01-06T09:07:29.855Z,70.63
2019-01-06T09:08:29.038Z,70.11
2019-01-06T09:09:29.286Z,70.53
2019-01-06T09:10:29.069Z,69.49
2019-01-06T09:11:29.662Z,70.73
2019-01-06T09:12:29.059Z,70.21
2019-01-06T09:13:30.597Z,71.46
2019-01-06T09:14:29.275Z,70.32
2019-01-06T09:15:29.061Z,69.49
2019-01-06T09:16:29.707Z,71.12
2019-01-06T09:17:29.632Z,70.94
2019-01-06T09:18:29.424Z,69.98
2019-01-06T09:19:29.503Z,70.50
2019-01-06T09:20:29.054Z,69.87
2019-01-06T09:21:29.440Z,69.77
2019-01-06T09:22:29.362Z,69.77
2019-01-06T09:23:29.319Z,69.77
2019-01-06T09:24:29.022Z,69.46
2019-01-06T09:25:29.542Z,69.04
2019-01-06T09:26:28.827Z,69.22
2019-01-06T09:27:29.665Z,67.46
2019-01-06T09:28:29.569Z,67.74
2019-01-06T09:29:29.048Z,68.08
2019-01-06T09:30:28.798Z,68.15
2019-01-06T09:31:28.789Z,67.85
2019-01-06T09:32:28.904Z,68.36
2019-01-06T09:33:29.582Z,68.02
2019-01-06T09:34:28.916Z,67.82
2019-01-06T09:35:28.801Z,67.30
2019-01-06T09:36:28.713Z,67.40
2019-01-06T09:37:28.791Z,67.40
2019-01-06T09:38:28.783Z,66.67
2019-01-06T09:39:29.055Z,66.36
2019-01-06T09:40:29.043Z,66.16
2019-01-06T09:41:28.738Z,66.67
2019-01-06T09:42:29.580Z,66.57
2019-01-06T09:43:28.842Z,66.57
2019-01-06T09:44:28.804Z,66.16
2019-01-06T09:45:30.984Z,66.16
2019-01-06T09:46:28.845Z,66.88
2019-01-06T09:47:28.608Z,66.88
2019-01-06T09:48:30.971Z,66.99
2019-01-06T09:49:28.626Z,67.09
2019-01-06T09:50:30.534Z,67.19
2019-01-06T09:51:28.646Z,66.57
2019-01-06T09:52:28.769Z,66.23
2019-01-06T09:53:29.228Z,66.36
2019-01-06T09:54:29.871Z,66.06
2019-01-06T09:55:29.487Z,66.36
2019-01-06T09:56:33.675Z,66.26
2019-01-06T09:57:28.654Z,66.57
2019-01-06T09:58:28.849Z,67.09
2019-01-06T09:59:28.709Z,66.78
2019-01-06T10:00:28.835Z,67.09
2019-01-06T10:01:29.001Z,66.54
2019-01-06T10:02:30.445Z,65.51
2019-01-06T10:03:28.764Z,65.51
2019-01-06T10:04:35.007Z,64.45
2019-01-06T10:05:29.437Z,64.17
2019-01-06T10:06:28.793Z,64.14
2019-01-06T10:07:28.810Z,63.82
2019-01-06T10:08:29.599Z,63.28
2019-01-06T10:09:28.708Z,63.39
2019-01-06T10:10:28.556Z,63.51
2019-01-06T10:11:28.730Z,63.42
2019-01-06T10:12:28.573Z,63.28
2019-01-06T10:13:28.741Z,63.04
2019-01-06T10:14:28.850Z,62.94
2019-01-06T10:15:28.763Z,63.46
2019-01-06T10:16:28.577Z,63.56
2019-01-06T10:17:32.284Z,62.97
2019-01-06T10:18:34.378Z,63.62
2019-01-06T10:19:30.729Z,63.93
2019-01-06T10:20:29.618Z,63.72
2019-01-06T10:21:41.854Z,63.72
2019-01-06T10:22:29.611Z,63.51
2019-01-06T10:23:28.808Z,64.65
2019-01-06T10:24:28.780Z,64.21
2019-01-06T10:25:29.709Z,63.49
2019-01-06T10:26:29.123Z,63.35
2019-01-06T10:27:28.627Z,62.66
2019-01-06T10:28:28.765Z,63.04
2019-01-06T10:29:28.578Z,62.12
2019-01-06T10:30:28.759Z,61.29
2019-01-06T10:31:30.884Z,61.78
2019-01-06T10:32:28.714Z,61.36
2019-01-06T10:33:28.639Z,61.16
2019-01-06T10:34:28.728Z,61.36
2019-01-06T10:35:28.587Z,61.68
2019-01-06T10:36:28.805Z,62.01
2019-01-06T10:37:30.016Z,61.29
2019-01-06T10:38:29.703Z,61.57
2019-01-06T10:39:28.611Z,60.38
2019-01-06T10:40:28.727Z,59.74
2019-01-06T10:41:28.647Z,58.16
2019-01-06T10:42:29.490Z,58.68
2019-01-06T10:43:28.711Z,58.03
2019-01-06T10:44:28.745Z,57.31
2019-01-06T10:45:28.719Z,57.39
2019-01-06T10:46:28.721Z,57.08
2019-01-06T10:47:28.848Z,57.29
2019-01-06T10:48:31.889Z,56.57
2019-01-06T10:49:28.948Z,56.05
2019-01-06T10:50:28.599Z,56.36
2019-01-06T10:51:30.135Z,55.95
2019-01-06T10:52:28.651Z,56.36
2019-01-06T10:53:28.738Z,56.15
2019-01-06T10:54:29.829Z,56.36
2019-01-06T10:55:28.943Z,56.26
2019-01-06T10:56:28.572Z,56.08
2019-01-06T10:57:28.824Z,57.10
2019-01-06T10:58:28.571Z,57.52
2019-01-06T10:59:30.791Z,57.01
2019-01-06T11:00:28.702Z,56.90
2019-01-06T11:01:28.745Z,56.93
2019-01-06T11:02:29.501Z,57.54
2019-01-06T11:03:28.733Z,57.57
2019-01-06T11:04:28.655Z,58.55
2019-01-06T11:05:29.486Z,59.07
2019-01-06T11:06:28.719Z,60.00
2019-01-06T11:07:28.607Z,59.48
2019-01-06T11:08:28.631Z,60.10
2019-01-06T11:09:28.115Z,60.10
2019-01-06T11:10:30.222Z,60.61
2019-01-06T11:11:30.120Z,60.61
2019-01-06T11:12:27.675Z,58.65
2019-01-06T11:13:27.663Z,59.48
2019-01-06T11:14:28.148Z,58.86
2019-01-06T11:15:29.596Z,59.79
2019-01-06T11:16:27.622Z,59.72
2019-01-06T11:17:29.213Z,60.13
2019-01-06T11:18:27.606Z,59.82
2019-01-06T11:19:28.569Z,59.92
2019-01-06T11:20:27.619Z,59.82
2019-01-06T11:21:30.342Z,59.82
2019-01-06T11:22:32.566Z,59.41
2019-01-06T11:23:27.588Z,58.89
2019-01-06T11:24:27.643Z,60.13
2019-01-06T11:25:29.599Z,58.65
2019-01-06T11:26:27.525Z,58.58
2019-01-06T11:27:27.508Z,59.30
2019-01-06T11:28:27.690Z,58.86
2019-01-06T11:29:27.501Z,58.86
2019-01-06T11:30:27.465Z,58.32
2019-01-06T11:31:27.483Z,57.26
2019-01-06T11:32:27.449Z,57.26
2019-01-06T11:33:27.436Z,57.37
2019-01-06T11:34:29.159Z,57.06
2019-01-06T11:35:27.425Z,57.39
2019-01-06T11:36:27.583Z,57.83
2019-01-06T11:37:27.393Z,57.93
2019-01-06T11:38:29.364Z,57.52
2019-01-06T11:39:27.382Z,57.18
2019-01-06T11:40:27.380Z,55.90
2019-01-06T11:41:27.343Z,55.90
2019-01-06T11:42:27.393Z,54.77
2019-01-06T11:43:27.331Z,54.82
2019-01-06T11:44:27.450Z,53.38
2019-01-06T11:45:27.304Z,53.66
2019-01-06T11:46:27.304Z,52.73
2019-01-06T11:47:27.377Z,53.35
2019-01-06T11:48:27.280Z,52.22
2019-01-06T11:49:30.599Z,53.45
2019-01-06T11:50:27.393Z,52.94
2019-01-06T11:51:27.413Z,53.48
2019-01-06T11:52:27.250Z,54.00
2019-01-06T11:53:27.450Z,54.53
2019-01-06T11:54:27.217Z,54.43
2019-01-06T11:55:27.304Z,54.43
2019-01-06T11:56:42.098Z,54.30
2019-01-06T11:57:27.507Z,54.30
2019-01-06T11:58:27.409Z,53.15
2019-01-06T11:59:27.156Z,52.40
2019-01-06T12:00:27.138Z,52.64
2019-01-06T12:01:29.534Z,52.43
2019-01-06T12:02:27.394Z,53.58
2019-01-06T12:03:27.118Z,53.77
2019-01-06T12:04:27.111Z,53.48
2019-01-06T12:05:27.120Z,53.25
2019-01-06T12:06:29.450Z,51.66
2019-01-06T12:07:27.081Z,51.45
2019-01-06T12:08:27.318Z,52.17
2019-01-06T12:09:27.060Z,51.23
2019-01-06T12:10:29.299Z,49.87
2019-01-06T12:11:27.180Z,48.72
2019-01-06T12:12:28.118Z,49.33
2019-01-06T12:13:27.058Z,49.64
2019-01-06T12:14:27.382Z,49.23
2019-01-06T12:15:27.051Z,49.54
2019-01-06T12:16:27.279Z,48.51
2019-01-06T12:17:27.063Z,48.43
2019-01-06T12:18:28.668Z,49.07
2019-01-06T12:19:33.654Z,49.35
2019-01-06T12:20:28.655Z,49.27
2019-01-06T12:21:27.528Z,49.09
2019-01-06T12:22:27.425Z,49.11
2019-01-06T12:23:26.895Z,50.78
2019-01-06T12:24:27.349Z,50.89
2019-01-06T12:25:26.920Z,51.42
2019-01-06T12:26:26.856Z,51.32
2019-01-06T12:27:27.239Z,51.53
2019-01-06T12:28:26.827Z,51.96
2019-01-06T12:29:27.213Z,51.96
2019-01-06T12:30:26.923Z,53.20
2019-01-06T12:31:27.948Z,53.12
2019-01-06T12:32:26.796Z,53.33
2019-01-06T12:33:26.818Z,53.74
2019-01-06T12:34:26.765Z,54.71
2019-01-06T12:35:30.119Z,56.05
2019-01-06T12:36:28.725Z,55.87
2019-01-06T12:37:27.776Z,56.31
2019-01-06T12:38:26.760Z,56.83
2019-01-06T12:39:26.712Z,57.24
2019-01-06T12:40:27.017Z,57.45
2019-01-06T12:41:28.723Z,58.37
2019-01-06T12:43:37.957Z,57.17
2019-01-06T12:44:44.632Z,58.09
2019-01-06T12:45:38.922Z,58.43
2019-01-06T12:46:37.904Z,59.23
2019-01-06T12:47:37.888Z,58.84
2019-01-06T12:48:37.891Z,58.33
2019-01-06T12:49:37.900Z,59.18
2019-01-06T12:50:37.854Z,58.56
2019-01-06T12:51:43.438Z,59.15
2019-01-06T12:52:38.835Z,58.87
2019-01-06T12:53:40.390Z,58.12